Time;durP1;ratioP1;P1;durP2;ratioP2;P2;SDS_P1;SDS_P2;PMS_P1;PMS_P2;Temp;Humidity;BMP_temperature;BMP_pressure;BME280_temperature;BME280_humidity;BME280_pressure;Samples;Min_cycle;Max_cycle;Signal;HPM_P1;HPM_P2
2021/03/23 00:00:28;;;;;;;5.67;2.30;;;6.40;99.90;;;;;;5103345;28;20202;-68
2021/03/23 00:02:56;;;;;;;6.40;2.23;;;6.40;99.90;;;;;;5096612;28;20666;-68
2021/03/23 00:05:24;;;;;;;9.20;2.47;;;6.30;99.90;;;;;;5105816;28;20681;-68
2021/03/23 00:07:50;;;;;;;6.63;2.33;;;6.30;99.90;;;;;;5101345;28;20231;-68
2021/03/23 00:10:21;;;;;;;5.80;2.37;;;6.30;99.90;;;;;;5097804;28;20304;-68
2021/03/23 00:12:48;;;;;;;9.37;2.50;;;6.40;99.90;;;;;;5103723;28;20208;-68
2021/03/23 00:15:15;;;;;;;3.60;2.50;;;6.30;99.90;;;;;;5106109;28;20207;-68
2021/03/23 00:17:43;;;;;;;4.60;2.40;;;6.30;99.90;;;;;;5099531;28;20208;-68
2021/03/23 00:20:12;;;;;;;5.97;2.53;;;6.30;99.90;;;;;;5105019;28;20403;-68
2021/03/23 00:22:40;;;;;;;5.27;2.60;;;6.30;99.90;;;;;;5107437;28;20213;-68
2021/03/23 00:25:09;;;;;;;5.23;2.97;;;6.30;99.90;;;;;;5103544;28;20200;-68
2021/03/23 00:27:35;;;;;;;3.83;2.17;;;6.30;99.90;;;;;;5103371;28;20209;-68
2021/03/23 00:30:03;;;;;;;6.37;2.17;;;6.30;99.90;;;;;;5103575;28;20228;-68
2021/03/23 00:32:30;;;;;;;5.73;2.20;;;6.30;99.90;;;;;;5097938;28;20209;-68
2021/03/23 00:34:58;;;;;;;4.40;2.60;;;6.20;99.90;;;;;;5104833;28;20208;-68
2021/03/23 00:37:25;;;;;;;5.83;2.17;;;6.20;99.90;;;;;;5096942;28;20206;-68
2021/03/23 00:39:52;;;;;;;4.13;2.90;;;6.20;99.90;;;;;;5101604;28;20659;-68
2021/03/23 00:42:18;;;;;;;5.30;2.40;;;6.30;99.90;;;;;;5102628;28;20604;-68
2021/03/23 00:44:46;;;;;;;9.97;3.00;;;6.30;99.90;;;;;;5105017;28;20209;-68
2021/03/23 00:47:12;;;;;;;4.60;2.80;;;6.20;99.90;;;;;;5092497;28;20258;-68
2021/03/23 00:49:39;;;;;;;3.77;2.67;;;6.20;99.90;;;;;;5106695;28;20216;-68
2021/03/23 00:52:07;;;;;;;5.37;2.63;;;6.30;99.90;;;;;;5099400;28;20201;-68
2021/03/23 00:54:34;;;;;;;5.57;2.83;;;6.30;99.90;;;;;;5092439;28;20202;-68
2021/03/23 00:57:00;;;;;;;6.10;2.93;;;6.30;99.90;;;;;;5093254;28;20559;-68
2021/03/23 00:59:27;;;;;;;5.67;2.93;;;6.30;99.90;;;;;;5104896;28;20658;-68
2021/03/23 01:01:54;;;;;;;5.60;3.10;;;6.20;99.90;;;;;;5105148;28;20197;-68
2021/03/23 01:04:20;;;;;;;4.77;2.80;;;6.20;99.90;;;;;;5099171;28;20201;-68
2021/03/23 01:06:47;;;;;;;4.87;3.33;;;6.20;99.90;;;;;;5106075;28;20231;-68
2021/03/23 01:09:15;;;;;;;5.50;2.90;;;6.20;99.90;;;;;;5106048;28;20539;-68
2021/03/23 01:11:41;;;;;;;7.00;3.17;;;6.10;99.90;;;;;;5093931;28;20221;-68
2021/03/23 01:14:08;;;;;;;4.30;2.87;;;6.20;99.90;;;;;;5096011;28;20209;-68
2021/03/23 01:16:35;;;;;;;7.20;2.93;;;6.20;99.90;;;;;;5107432;28;20205;-68
2021/03/23 01:19:01;;;;;;;5.60;3.30;;;6.20;99.90;;;;;;5101254;28;20201;-68
2021/03/23 01:21:28;;;;;;;6.87;2.90;;;6.20;99.90;;;;;;5089103;28;20241;-68
2021/03/23 01:23:55;;;;;;;8.60;2.87;;;6.10;99.90;;;;;;5105136;28;20574;-68
2021/03/23 01:26:23;;;;;;;4.37;3.03;;;6.10;99.90;;;;;;5093713;28;20214;-69
2021/03/23 01:28:50;;;;;;;4.30;2.77;;;6.20;99.90;;;;;;5101939;28;20694;-68
2021/03/23 01:31:16;;;;;;;5.00;2.90;;;6.10;99.90;;;;;;5093733;28;20198;-68
2021/03/23 01:33:43;;;;;;;4.10;3.13;;;6.10;99.90;;;;;;5092223;28;20213;-68
2021/03/23 01:36:10;;;;;;;6.67;2.70;;;6.10;99.90;;;;;;5094464;28;20208;-68
2021/03/23 01:38:37;;;;;;;4.63;3.10;;;6.10;99.90;;;;;;5105547;28;20201;-69
2021/03/23 01:41:04;;;;;;;6.57;2.90;;;6.20;99.90;;;;;;5105900;28;20259;-68
2021/03/23 01:43:34;;;;;;;4.70;2.83;;;6.10;99.90;;;;;;5099988;28;20212;-69
2021/03/23 01:46:01;;;;;;;7.93;2.77;;;6.10;99.90;;;;;;5103567;28;20201;-68
2021/03/23 01:48:31;;;;;;;5.70;3.07;;;6.00;99.90;;;;;;5108336;28;20319;-68
2021/03/23 01:51:00;;;;;;;8.30;3.20;;;6.10;99.90;;;;;;5110565;28;20201;-68
2021/03/23 01:53:34;;;;;;;5.73;3.13;;;6.10;99.90;;;;;;5113324;28;20200;-68
2021/03/23 01:56:01;;;;;;;4.13;2.83;;;6.10;99.90;;;;;;5111883;28;20204;-68
2021/03/23 01:58:29;;;;;;;4.63;2.90;;;6.00;99.90;;;;;;5106946;28;20205;-68
2021/03/23 02:00:57;;;;;;;5.77;3.00;;;6.00;99.90;;;;;;5112029;28;20681;-68
2021/03/23 02:03:24;;;;;;;4.87;2.77;;;6.10;99.90;;;;;;5111477;28;20201;-68
2021/03/23 02:05:55;;;;;;;4.27;2.80;;;6.10;99.90;;;;;;5113111;28;20212;-68
2021/03/23 02:08:22;;;;;;;5.43;3.20;;;6.10;99.90;;;;;;5108500;28;20742;-68
2021/03/23 02:10:51;;;;;;;6.97;3.07;;;6.10;99.90;;;;;;5112565;28;20213;-68
2021/03/23 02:13:18;;;;;;;7.03;3.17;;;6.00;99.90;;;;;;5108988;28;20201;-68
2021/03/23 02:15:44;;;;;;;5.10;3.23;;;6.00;99.90;;;;;;5112698;28;20201;-68
2021/03/23 02:18:15;;;;;;;6.60;3.40;;;6.00;99.90;;;;;;5108139;28;20275;-68
2021/03/23 02:21:08;;;;;;;7.20;3.23;;;6.00;99.90;;;;;;5109262;28;20721;-68
2021/03/23 02:23:37;;;;;;;5.90;3.33;;;6.00;99.90;;;;;;5108648;28;20208;-68
2021/03/23 02:26:04;;;;;;;7.13;3.70;;;6.00;99.90;;;;;;5110049;28;20228;-68
2021/03/23 02:28:39;;;;;;;7.13;3.40;;;6.10;99.90;;;;;;5107720;28;20693;-68
2021/03/23 02:31:05;;;;;;;5.67;3.57;;;6.00;99.90;;;;;;5107973;28;20201;-68
2021/03/23 02:33:32;;;;;;;7.50;3.30;;;6.00;99.90;;;;;;5108103;28;20197;-68
2021/03/23 02:35:58;;;;;;;8.40;3.20;;;6.00;99.90;;;;;;5111202;28;20200;-68
2021/03/23 02:38:26;;;;;;;9.77;4.13;;;6.00;99.90;;;;;;5110370;28;20249;-68
2021/03/23 02:40:53;;;;;;;8.50;3.50;;;6.00;99.90;;;;;;5112549;28;20206;-68
2021/03/23 02:43:19;;;;;;;7.00;3.60;;;6.00;99.90;;;;;;5112845;28;20216;-68
2021/03/23 02:45:54;;;;;;;8.90;3.73;;;5.90;99.90;;;;;;5111245;28;20642;-68
2021/03/23 02:48:20;;;;;;;7.60;4.83;;;5.90;99.90;;;;;;5107617;28;20612;-68
2021/03/23 02:50:48;;;;;;;9.37;3.53;;;5.90;99.90;;;;;;5108214;28;20204;-68
2021/03/23 02:53:14;;;;;;;7.23;3.23;;;5.90;99.90;;;;;;5106376;28;20202;-68
2021/03/23 02:55:44;;;;;;;8.53;3.50;;;5.90;99.90;;;;;;5107196;28;20573;-68
2021/03/23 02:58:11;;;;;;;7.37;3.50;;;6.00;99.90;;;;;;5105614;28;20221;-68
2021/03/23 03:00:38;;;;;;;7.17;3.30;;;5.90;99.90;;;;;;5108812;28;20197;-68
2021/03/23 03:03:04;;;;;;;9.13;4.10;;;5.90;99.90;;;;;;5108675;28;20201;-68
2021/03/23 03:05:31;;;;;;;8.00;3.60;;;5.80;99.90;;;;;;5109395;28;20340;-68
2021/03/23 03:07:58;;;;;;;7.93;3.13;;;5.80;99.90;;;;;;5106063;28;20568;-68
2021/03/23 03:10:24;;;;;;;9.50;3.40;;;5.80;99.90;;;;;;5111337;28;20212;-68
2021/03/23 03:12:52;;;;;;;6.93;3.13;;;5.80;99.90;;;;;;5112692;28;20196;-68
2021/03/23 03:15:19;;;;;;;5.97;3.40;;;5.90;99.90;;;;;;5107771;28;20209;-68
2021/03/23 03:17:45;;;;;;;7.53;3.33;;;5.90;99.90;;;;;;5101730;28;20208;-68
2021/03/23 03:20:15;;;;;;;7.10;3.43;;;5.90;99.90;;;;;;5106173;28;20189;-69
2021/03/23 03:22:42;;;;;;;7.67;3.60;;;5.90;99.90;;;;;;5110465;28;20578;-68
2021/03/23 03:25:11;;;;;;;8.27;3.90;;;5.90;99.90;;;;;;5105547;28;20197;-68
2021/03/23 03:27:37;;;;;;;8.47;3.80;;;5.80;99.90;;;;;;5109539;28;20204;-68
2021/03/23 03:30:07;;;;;;;8.73;3.90;;;5.90;99.90;;;;;;5110131;28;20635;-68
2021/03/23 03:32:34;;;;;;;8.70;3.77;;;5.80;99.90;;;;;;5106551;28;20212;-68
2021/03/23 03:35:00;;;;;;;8.87;3.47;;;5.80;99.90;;;;;;5106987;28;20613;-68
2021/03/23 03:37:27;;;;;;;5.67;3.40;;;5.80;99.90;;;;;;5101275;28;20197;-68
2021/03/23 03:39:53;;;;;;;6.17;3.50;;;5.90;99.90;;;;;;5107120;28;20197;-68
2021/03/23 03:42:20;;;;;;;7.10;4.07;;;5.90;99.90;;;;;;5111405;28;20208;-68
2021/03/23 03:44:47;;;;;;;9.30;4.33;;;5.90;99.90;;;;;;5107808;28;20251;-68
2021/03/23 03:47:14;;;;;;;12.93;4.23;;;5.90;99.90;;;;;;5109575;28;20208;-68
2021/03/23 03:49:41;;;;;;;6.73;3.67;;;5.80;99.90;;;;;;5110166;28;20216;-68
2021/03/23 03:52:09;;;;;;;7.17;3.77;;;5.80;99.90;;;;;;5108353;28;20197;-68
2021/03/23 03:54:36;;;;;;;8.30;4.40;;;5.80;99.90;;;;;;5105386;28;20254;-68
2021/03/23 03:57:02;;;;;;;10.10;4.93;;;5.90;99.90;;;;;;5092997;28;20205;-68
2021/03/23 03:59:29;;;;;;;8.17;4.00;;;5.90;99.90;;;;;;5098289;28;20201;-68
2021/03/23 04:01:56;;;;;;;7.40;4.30;;;5.90;99.90;;;;;;5101108;28;20201;-68
2021/03/23 04:04:23;;;;;;;10.87;4.67;;;5.80;99.90;;;;;;5107736;28;20658;-68
2021/03/23 04:06:50;;;;;;;12.13;4.50;;;5.90;99.90;;;;;;5102799;28;20206;-68
2021/03/23 04:09:16;;;;;;;10.07;4.83;;;5.90;99.90;;;;;;5110616;28;20716;-68
2021/03/23 04:11:43;;;;;;;9.27;4.60;;;5.90;99.90;;;;;;5109659;28;20208;-68
2021/03/23 04:14:10;;;;;;;8.13;4.03;;;5.90;99.90;;;;;;5110570;28;20223;-68
2021/03/23 04:16:36;;;;;;;9.80;4.60;;;5.90;99.90;;;;;;5110136;28;20212;-69
2021/03/23 04:19:03;;;;;;;9.57;4.13;;;5.90;99.90;;;;;;5110228;28;20216;-68
2021/03/23 04:21:30;;;;;;;9.33;4.33;;;5.90;99.90;;;;;;5103845;28;20208;-68
2021/03/23 04:23:57;;;;;;;6.93;4.20;;;5.90;99.90;;;;;;5110241;28;20592;-68
2021/03/23 04:26:23;;;;;;;12.27;4.70;;;5.80;99.90;;;;;;5110111;28;20204;-69
2021/03/23 04:28:50;;;;;;;12.33;4.67;;;5.80;99.90;;;;;;5107887;28;20229;-68
2021/03/23 04:31:28;;;;;;;10.60;5.00;;;5.80;99.90;;;;;;5109734;28;20608;-68
2021/03/23 04:33:55;;;;;;;10.97;4.70;;;5.80;99.90;;;;;;5101218;28;20208;-68
2021/03/23 04:36:21;;;;;;;8.13;4.63;;;5.80;99.90;;;;;;5095530;28;20200;-68
2021/03/23 04:38:49;;;;;;;9.83;5.00;;;5.80;99.90;;;;;;5109853;28;20201;-68
2021/03/23 04:41:17;;;;;;;12.33;4.83;;;5.80;99.90;;;;;;5110007;28;20197;-68
2021/03/23 04:43:45;;;;;;;8.63;4.60;;;5.80;99.90;;;;;;5109243;28;20654;-68
2021/03/23 04:46:13;;;;;;;9.23;5.00;;;5.80;99.90;;;;;;5105600;28;20715;-68
2021/03/23 04:48:40;;;;;;;9.37;4.33;;;5.80;99.90;;;;;;5098968;28;20225;-68
2021/03/23 04:51:09;;;;;;;8.57;4.63;;;5.80;99.90;;;;;;5107835;28;20569;-68
2021/03/23 04:53:38;;;;;;;8.90;4.60;;;5.80;99.90;;;;;;5109332;28;20215;-68
2021/03/23 04:56:08;;;;;;;9.03;4.37;;;5.80;99.90;;;;;;5100444;28;20205;-68
2021/03/23 04:58:35;;;;;;;7.53;4.37;;;5.90;99.90;;;;;;5107066;28;20197;-68
2021/03/23 05:01:02;;;;;;;10.20;4.60;;;5.80;99.90;;;;;;5110397;28;20208;-68
2021/03/23 05:03:32;;;;;;;8.57;4.03;;;5.80;99.90;;;;;;5110561;28;20678;-68
2021/03/23 05:06:04;;;;;;;8.27;3.83;;;5.80;99.90;;;;;;5105201;28;20208;-68
2021/03/23 05:08:30;;;;;;;8.87;4.33;;;5.80;99.90;;;;;;5110781;28;20693;-68
2021/03/23 05:10:57;;;;;;;9.30;4.40;;;5.90;99.90;;;;;;5109248;28;20246;-69
2021/03/23 05:13:25;;;;;;;7.23;4.20;;;5.80;99.90;;;;;;5108833;28;20254;-69
2021/03/23 05:15:51;;;;;;;7.37;4.03;;;5.80;99.90;;;;;;5109309;28;20212;-69
2021/03/23 05:18:18;;;;;;;8.63;4.43;;;5.80;99.90;;;;;;5109361;28;20219;-69
2021/03/23 05:20:45;;;;;;;8.80;4.20;;;5.90;99.90;;;;;;5108223;28;20679;-68
2021/03/23 05:23:12;;;;;;;7.87;4.30;;;5.80;99.90;;;;;;5109250;28;20200;-69
2021/03/23 05:25:39;;;;;;;9.93;4.37;;;5.90;99.90;;;;;;5107787;28;20252;-69
2021/03/23 05:28:06;;;;;;;9.13;4.23;;;5.80;99.90;;;;;;5113255;28;20197;-69
2021/03/23 05:30:33;;;;;;;6.73;3.90;;;5.80;99.90;;;;;;5113513;28;20553;-69
2021/03/23 05:33:00;;;;;;;7.93;4.17;;;5.80;99.90;;;;;;5113839;28;20227;-69
2021/03/23 05:35:27;;;;;;;8.00;4.07;;;5.80;99.90;;;;;;5115034;28;20207;-69
2021/03/23 05:37:54;;;;;;;5.30;3.40;;;5.80;99.90;;;;;;5107769;28;20201;-69
2021/03/23 05:40:23;;;;;;;7.30;3.93;;;5.80;99.90;;;;;;5108389;28;20193;-69
2021/03/23 05:43:02;;;;;;;8.17;4.63;;;5.80;99.90;;;;;;5112726;28;20201;-69
2021/03/23 05:45:37;;;;;;;6.50;3.90;;;5.80;99.90;;;;;;5113351;28;20212;-69
2021/03/23 05:48:15;;;;;;;9.77;4.13;;;5.90;99.90;;;;;;5088623;28;20582;-69
2021/03/23 05:50:45;;;;;;;7.90;4.07;;;5.80;99.90;;;;;;5114767;28;20217;-69
2021/03/23 05:53:16;;;;;;;7.23;4.60;;;5.90;99.90;;;;;;5109926;28;20588;-69
2021/03/23 05:55:45;;;;;;;7.00;3.93;;;5.90;99.90;;;;;;5114425;28;20232;-69
2021/03/23 05:58:19;;;;;;;10.10;3.80;;;5.80;99.90;;;;;;5105447;28;20208;-69
2021/03/23 06:00:55;;;;;;;10.37;5.20;;;5.80;99.90;;;;;;5114681;28;20201;-69
2021/03/23 06:03:27;;;;;;;9.60;4.30;;;5.80;99.90;;;;;;5113155;28;20261;-69
2021/03/23 06:05:58;;;;;;;5.87;3.60;;;5.90;99.90;;;;;;5114679;28;20595;-69
2021/03/23 06:08:29;;;;;;;7.50;3.90;;;5.90;99.90;;;;;;5110297;28;20569;-69
2021/03/23 06:11:32;;;;;;;7.47;4.23;;;5.90;99.90;;;;;;5099989;28;20200;-69
2021/03/23 06:14:15;;;;;;;8.00;4.50;;;5.90;99.90;;;;;;5109430;28;20258;-69
2021/03/23 06:16:49;;;;;;;8.43;4.40;;;5.90;99.90;;;;;;5095523;28;20651;-69
2021/03/23 06:19:31;;;;;;;8.97;5.33;;;5.90;99.90;;;;;;5093788;28;20704;-69
2021/03/23 06:22:08;;;;;;;10.03;4.73;;;5.90;99.90;;;;;;5087579;28;20204;-69
2021/03/23 06:24:41;;;;;;;8.60;4.50;;;6.00;99.90;;;;;;5093284;28;20193;-69
2021/03/23 06:27:15;;;;;;;9.63;4.43;;;6.00;99.90;;;;;;5105376;28;20197;-69
2021/03/23 06:30:16;;;;;;;9.57;4.43;;;5.90;99.90;;;;;;5115186;28;20630;-69
2021/03/23 06:32:48;;;;;;;8.23;4.73;;;6.00;99.90;;;;;;5113538;28;20201;-69
2021/03/23 06:35:18;;;;;;;10.70;6.50;;;6.00;99.90;;;;;;5113227;28;20201;-69
2021/03/23 06:37:45;;;;;;;8.00;4.20;;;6.00;99.90;;;;;;5102521;28;20202;-69
2021/03/23 06:40:16;;;;;;;10.03;4.50;;;6.00;99.90;;;;;;5113583;28;20208;-69
2021/03/23 06:42:45;;;;;;;9.30;5.90;;;6.00;99.90;;;;;;5108441;28;20204;-69
2021/03/23 06:45:37;;;;;;;6.50;4.60;;;6.10;99.90;;;;;;5098833;28;20209;-69
2021/03/23 06:48:26;;;;;;;8.30;4.23;;;6.10;99.90;;;;;;5108590;28;20643;-68
2021/03/23 06:51:09;;;;;;;8.10;4.33;;;6.00;99.90;;;;;;5102978;28;20201;-68
2021/03/23 06:53:36;;;;;;;11.10;4.57;;;6.10;99.90;;;;;;5087250;28;20193;-69
2021/03/23 06:56:18;;;;;;;9.00;4.63;;;6.10;99.90;;;;;;5104900;28;20217;-68
2021/03/23 06:58:45;;;;;;;10.23;5.10;;;6.10;99.90;;;;;;5109537;28;20568;-68
2021/03/23 07:01:20;;;;;;;10.27;4.63;;;6.10;99.90;;;;;;5110313;28;20193;-68
2021/03/23 07:03:51;;;;;;;7.77;4.90;;;6.20;99.90;;;;;;5111745;28;20208;-71
2021/03/23 07:06:27;;;;;;;8.17;5.10;;;6.20;99.90;;;;;;5105593;28;20229;-72
2021/03/23 07:09:19;;;;;;;11.23;4.97;;;6.20;99.90;;;;;;5109215;28;20229;-72
2021/03/23 07:11:51;;;;;;;11.07;5.43;;;6.20;99.90;;;;;;5094715;28;20224;-72
2021/03/23 07:14:23;;;;;;;10.73;5.70;;;6.20;99.90;;;;;;5110853;28;20529;-72
2021/03/23 07:16:49;;;;;;;8.40;5.10;;;6.30;99.90;;;;;;5112523;28;20692;-72
2021/03/23 07:19:17;;;;;;;7.87;5.00;;;6.30;99.90;;;;;;5112415;28;20200;-72
2021/03/23 07:21:50;;;;;;;9.03;5.67;;;6.30;99.90;;;;;;5105748;28;20286;-72
2021/03/23 07:24:19;;;;;;;9.00;5.00;;;6.40;99.90;;;;;;5108587;28;20288;-72
2021/03/23 07:26:59;;;;;;;8.27;5.30;;;6.50;99.90;;;;;;5110025;28;20243;-76
2021/03/23 07:29:30;;;;;;;7.73;4.97;;;6.50;99.90;;;;;;5094237;28;20254;-76
2021/03/23 07:32:07;;;;;;;10.00;5.73;;;6.60;99.90;;;;;;5108961;28;20208;-76
2021/03/23 07:34:48;;;;;;;11.20;5.43;;;6.50;99.90;;;;;;5103548;28;20196;-76
2021/03/23 07:37:19;;;;;;;8.77;5.83;;;6.70;99.90;;;;;;5106300;28;20198;-76
2021/03/23 07:39:52;;;;;;;10.77;5.43;;;6.70;99.90;;;;;;5098231;28;20215;-76
2021/03/23 07:42:26;;;;;;;8.60;5.27;;;6.80;99.90;;;;;;5105869;28;20205;-76
2021/03/23 07:44:57;;;;;;;9.57;5.53;;;6.90;99.90;;;;;;5089919;28;20240;-77
2021/03/23 07:47:34;;;;;;;9.57;5.50;;;7.00;99.90;;;;;;5100513;28;20194;-76
2021/03/23 07:50:07;;;;;;;9.23;6.00;;;6.90;99.90;;;;;;5111328;28;20216;-76
2021/03/23 07:52:42;;;;;;;9.10;5.03;;;7.00;99.90;;;;;;5107848;28;20212;-76
2021/03/23 07:55:19;;;;;;;13.13;5.10;;;7.10;99.90;;;;;;5107396;28;20719;-74
2021/03/23 07:58:21;;;;;;;11.70;6.10;;;7.10;99.90;;;;;;5106866;28;20201;-76
2021/03/23 08:01:26;;;;;;;8.80;5.13;;;7.20;99.90;;;;;;5106915;28;20197;-75
2021/03/23 08:04:05;;;;;;;7.87;4.67;;;7.20;99.90;;;;;;5071467;28;20208;-75
2021/03/23 08:06:53;;;;;;;9.43;5.00;;;7.30;99.90;;;;;;5111825;28;20205;-75
2021/03/23 08:09:45;;;;;;;9.77;5.30;;;7.30;99.90;;;;;;5107527;28;20277;-76
2021/03/23 08:12:28;;;;;;;7.97;4.57;;;7.40;99.90;;;;;;5108291;28;20242;-76
2021/03/23 08:15:16;;;;;;;12.00;5.60;;;7.50;99.90;;;;;;5112253;28;20219;-75
2021/03/23 08:18:01;;;;;;;8.17;5.10;;;7.30;99.90;;;;;;5109324;28;20216;-76
2021/03/23 08:20:47;;;;;;;11.87;5.97;;;7.40;99.90;;;;;;5111872;28;20280;-75
2021/03/23 08:23:23;;;;;;;11.67;5.43;;;7.30;99.90;;;;;;5083453;28;20201;-76
2021/03/23 08:25:55;;;;;;;10.33;5.80;;;7.50;99.90;;;;;;5093450;28;20205;-75
2021/03/23 08:28:33;;;;;;;9.63;5.50;;;7.50;99.90;;;;;;5110869;28;20200;-76
2021/03/23 08:31:23;;;;;;;7.87;5.20;;;7.60;99.90;;;;;;5109647;28;20211;-75
2021/03/23 08:34:02;;;;;;;11.80;5.73;;;7.70;99.90;;;;;;5104210;28;20647;-75
2021/03/23 08:36:49;;;;;;;9.63;5.40;;;7.80;99.90;;;;;;5103171;28;20197;-76
2021/03/23 08:39:27;;;;;;;11.47;5.60;;;7.80;99.90;;;;;;5087866;28;20203;-76
2021/03/23 08:41:59;;;;;;;11.60;5.07;;;7.70;99.90;;;;;;5098739;28;20224;-76
2021/03/23 08:44:33;;;;;;;9.70;5.10;;;7.90;99.90;;;;;;5111401;28;20197;-76
2021/03/23 08:47:08;;;;;;;11.30;5.60;;;8.00;99.90;;;;;;5100253;28;20224;-76
2021/03/23 08:49:35;;;;;;;10.70;5.50;;;8.00;99.90;;;;;;5073723;28;20269;-76
2021/03/23 08:52:02;;;;;;;10.63;5.20;;;8.20;99.90;;;;;;5093364;28;20206;-76
2021/03/23 08:54:47;;;;;;;9.37;5.80;;;8.30;99.90;;;;;;5103976;28;20568;-76
2021/03/23 08:57:14;;;;;;;8.90;5.73;;;8.10;99.90;;;;;;5099222;28;20708;-76
2021/03/23 08:59:52;;;;;;;11.67;6.00;;;8.10;99.90;;;;;;5107374;28;20279;-75
2021/03/23 09:02:47;;;;;;;11.53;5.57;;;8.10;99.90;;;;;;5102716;28;20257;-76
2021/03/23 09:05:35;;;;;;;9.70;6.20;;;8.10;99.90;;;;;;5114422;28;20250;-76
2021/03/23 09:08:35;;;;;;;11.83;5.83;;;8.10;99.90;;;;;;5103292;28;20212;-76
2021/03/23 09:11:06;;;;;;;11.87;5.27;;;8.20;99.90;;;;;;5029433;28;20199;-76
2021/03/23 09:14:03;;;;;;;10.27;5.87;;;8.30;99.90;;;;;;5097614;28;20214;-75
2021/03/23 09:16:52;;;;;;;11.80;6.13;;;8.30;99.90;;;;;;5110372;28;20236;-75
2021/03/23 09:19:36;;;;;;;10.17;5.50;;;8.30;99.90;;;;;;5114955;28;20215;-76
2021/03/23 09:22:25;;;;;;;11.20;5.53;;;8.40;99.90;;;;;;5115520;28;20250;-76
2021/03/23 09:25:29;;;;;;;15.77;5.90;;;8.30;99.90;;;;;;5103120;28;20541;-76
2021/03/23 09:28:00;;;;;;;10.27;5.70;;;8.30;99.90;;;;;;5115042;28;20681;-75
2021/03/23 09:30:55;;;;;;;10.13;5.57;;;8.30;99.90;;;;;;5112799;28;20237;-76
2021/03/23 09:33:32;;;;;;;12.03;6.03;;;8.40;99.90;;;;;;5106528;28;20193;-76
2021/03/23 09:36:32;;;;;;;10.03;5.70;;;8.50;99.90;;;;;;5109061;28;20201;-75
2021/03/23 09:39:43;;;;;;;9.80;5.80;;;8.50;99.90;;;;;;5091271;28;20200;-75
2021/03/23 09:42:44;;;;;;;11.27;5.20;;;8.60;99.90;;;;;;5113595;28;20209;-76
2021/03/23 09:45:37;;;;;;;14.63;6.23;;;8.60;99.90;;;;;;5111829;28;20652;-67
2021/03/23 09:48:32;;;;;;;12.13;6.43;;;8.60;99.90;;;;;;5108471;28;20573;-67
2021/03/23 09:51:02;;;;;;;18.27;5.80;;;8.70;99.90;;;;;;5100405;28;20551;-67
2021/03/23 09:53:36;;;;;;;12.13;6.73;;;8.70;99.90;;;;;;5113396;28;20204;-68
2021/03/23 09:56:05;;;;;;;13.93;6.20;;;8.70;99.90;;;;;;5112380;28;20561;-68
2021/03/23 09:58:32;;;;;;;13.73;6.70;;;8.80;99.90;;;;;;5108890;28;20193;-67
2021/03/23 10:01:16;;;;;;;12.90;6.57;;;8.80;99.90;;;;;;5113750;28;20205;-68
2021/03/23 10:03:44;;;;;;;11.43;5.77;;;8.90;99.90;;;;;;5107152;28;20658;-68
2021/03/23 10:06:13;;;;;;;8.90;5.50;;;8.80;99.90;;;;;;5112149;28;20561;-67
2021/03/23 10:08:53;;;;;;;10.37;6.17;;;8.90;99.90;;;;;;5106536;28;20227;-68
2021/03/23 10:11:21;;;;;;;8.83;5.77;;;8.80;99.90;;;;;;5080983;28;20198;-68
2021/03/23 10:13:53;;;;;;;11.53;5.80;;;8.90;99.90;;;;;;5107386;28;20205;-68
2021/03/23 10:16:31;;;;;;;8.00;5.13;;;9.00;99.90;;;;;;5101040;28;20651;-68
2021/03/23 10:19:03;;;;;;;12.93;5.60;;;9.20;99.90;;;;;;5103915;28;20207;-68
2021/03/23 10:21:32;;;;;;;10.30;5.53;;;9.20;99.90;;;;;;5100861;28;20201;-67
2021/03/23 10:24:02;;;;;;;10.07;5.77;;;9.20;99.90;;;;;;5104595;28;20497;-68
2021/03/23 10:26:36;;;;;;;11.00;6.30;;;9.40;99.90;;;;;;5099953;28;20200;-67
2021/03/23 10:29:20;;;;;;;10.33;5.93;;;9.40;99.90;;;;;;5109674;28;20224;-69
2021/03/23 10:31:51;;;;;;;12.43;6.87;;;9.50;99.90;;;;;;5100699;28;20654;-69
2021/03/23 10:34:20;;;;;;;15.23;6.60;;;9.30;99.90;;;;;;5112013;28;20631;-69
2021/03/23 10:36:51;;;;;;;13.40;6.53;;;9.30;99.90;;;;;;5109048;28;20201;-69
2021/03/23 10:39:29;;;;;;;20.70;5.60;;;9.30;99.90;;;;;;5108947;28;20201;-69
2021/03/23 10:41:56;;;;;;;13.20;7.13;;;9.30;99.90;;;;;;5106622;28;20610;-76
2021/03/23 10:44:27;;;;;;;11.77;6.37;;;9.50;99.90;;;;;;5107081;28;20246;-75
2021/03/23 10:46:56;;;;;;;13.73;7.23;;;9.50;99.90;;;;;;5100846;28;20197;-76
2021/03/23 10:49:27;;;;;;;14.27;7.07;;;9.40;99.90;;;;;;5101821;28;20220;-75
2021/03/23 10:51:56;;;;;;;15.47;8.27;;;9.40;99.90;;;;;;5097900;28;20201;-75
2021/03/23 10:54:26;;;;;;;16.30;7.60;;;9.30;99.90;;;;;;5103517;28;20201;-75
2021/03/23 10:56:55;;;;;;;13.83;7.43;;;9.40;99.90;;;;;;5108113;28;20197;-75
2021/03/23 10:59:30;;;;;;;16.43;8.07;;;9.30;99.90;;;;;;5105898;28;20200;-75
2021/03/23 11:02:20;;;;;;;11.97;6.87;;;9.30;99.90;;;;;;5104428;28;20691;-76
2021/03/23 11:05:02;;;;;;;16.23;8.17;;;9.40;99.90;;;;;;5104931;28;20709;-75
2021/03/23 11:07:30;;;;;;;21.03;8.57;;;9.30;99.90;;;;;;5101921;28;20197;-75
2021/03/23 11:10:00;;;;;;;13.10;7.47;;;9.30;99.90;;;;;;5107546;28;20743;-75
2021/03/23 11:12:27;;;;;;;14.37;7.80;;;9.30;99.90;;;;;;5101826;28;20609;-68
2021/03/23 11:14:56;;;;;;;15.10;7.80;;;9.30;99.90;;;;;;5107026;28;20631;-67
2021/03/23 11:17:24;;;;;;;19.80;8.60;;;9.30;99.90;;;;;;5102536;28;20205;-67
2021/03/23 11:19:54;;;;;;;17.10;8.80;;;9.40;99.90;;;;;;5103993;28;20205;-67
2021/03/23 11:22:26;;;;;;;15.33;8.10;;;9.40;99.90;;;;;;5101863;28;20208;-67
2021/03/23 11:24:53;;;;;;;17.93;8.77;;;9.40;99.90;;;;;;5103561;28;20650;-67
2021/03/23 11:27:22;;;;;;;15.37;8.10;;;9.50;99.90;;;;;;5107953;28;20205;-67
2021/03/23 11:29:49;;;;;;;16.97;8.87;;;9.40;99.90;;;;;;5108357;28;20698;-67
2021/03/23 11:32:16;;;;;;;16.03;8.97;;;9.40;99.90;;;;;;5103772;28;20205;-67
2021/03/23 11:34:43;;;;;;;17.63;8.83;;;9.50;99.90;;;;;;5108768;28;20208;-67
2021/03/23 11:37:10;;;;;;;17.10;9.43;;;9.50;99.90;;;;;;5106054;28;20584;-67
2021/03/23 11:39:37;;;;;;;15.10;8.97;;;9.50;99.90;;;;;;5107444;28;20216;-68
2021/03/23 11:42:06;;;;;;;17.73;8.83;;;9.60;99.90;;;;;;5101956;28;20618;-67
2021/03/23 11:44:37;;;;;;;19.27;9.10;;;9.60;99.90;;;;;;5103564;28;20659;-67
2021/03/23 11:47:10;;;;;;;17.73;9.47;;;9.50;99.90;;;;;;5108012;28;20212;-67
2021/03/23 11:50:05;;;;;;;19.37;9.27;;;9.60;99.90;;;;;;5107456;28;20264;-67
2021/03/23 11:52:33;;;;;;;18.90;9.30;;;9.60;99.90;;;;;;5089318;28;20197;-67
2021/03/23 11:55:03;;;;;;;18.77;9.73;;;9.60;99.90;;;;;;5107806;28;20706;-67
2021/03/23 11:57:30;;;;;;;20.50;10.17;;;9.70;99.90;;;;;;5101717;28;20217;-71
2021/03/23 11:59:57;;;;;;;20.53;11.70;;;9.70;99.90;;;;;;5106570;28;20205;-71
2021/03/23 12:02:26;;;;;;;18.93;11.13;;;9.80;99.90;;;;;;5104481;28;20206;-71
2021/03/23 12:04:53;;;;;;;18.50;10.27;;;9.90;99.90;;;;;;5102223;28;20259;-71
2021/03/23 12:07:38;;;;;;;19.87;10.83;;;9.90;99.90;;;;;;5107842;28;20209;-72
2021/03/23 12:10:09;;;;;;;18.47;10.20;;;9.90;99.90;;;;;;5103930;28;20507;-72
2021/03/23 12:12:41;;;;;;;21.07;10.03;;;10.00;99.90;;;;;;5095550;28;20220;-72
2021/03/23 12:15:13;;;;;;;24.37;11.13;;;10.10;99.90;;;;;;5100906;28;20209;-72
2021/03/23 12:17:44;;;;;;;22.07;11.37;;;10.10;99.90;;;;;;5104246;28;20220;-72
2021/03/23 12:20:16;;;;;;;19.90;10.57;;;10.20;99.90;;;;;;5098215;28;20283;-72
2021/03/23 12:22:45;;;;;;;21.33;11.07;;;10.20;99.90;;;;;;5107885;28;20556;-72
2021/03/23 12:25:12;;;;;;;20.57;11.63;;;10.30;99.90;;;;;;5101171;28;20201;-72
2021/03/23 12:27:40;;;;;;;18.33;10.53;;;10.30;99.90;;;;;;5107974;28;20212;-72
2021/03/23 12:30:09;;;;;;;19.87;11.07;;;10.20;99.90;;;;;;5102254;28;20217;-72
2021/03/23 12:32:36;;;;;;;20.63;11.10;;;10.20;99.90;;;;;;5101145;28;20208;-71
2021/03/23 12:35:09;;;;;;;19.90;11.17;;;10.30;99.90;;;;;;5098085;28;20244;-72
2021/03/23 12:37:36;;;;;;;21.47;10.87;;;10.40;99.90;;;;;;5108635;28;20212;-72
2021/03/23 12:40:06;;;;;;;20.87;11.07;;;10.70;99.90;;;;;;5094909;28;20215;-72
2021/03/23 12:42:33;;;;;;;20.17;11.43;;;10.70;99.90;;;;;;5107423;28;20227;-72
2021/03/23 12:44:59;;;;;;;21.87;11.57;;;10.80;99.90;;;;;;5098435;28;20662;-72
2021/03/23 12:47:26;;;;;;;21.57;11.43;;;10.90;99.90;;;;;;5098383;28;20303;-72
2021/03/23 12:49:53;;;;;;;22.40;12.67;;;11.00;99.90;;;;;;5102924;28;20220;-72
2021/03/23 12:52:22;;;;;;;23.07;11.70;;;11.00;99.90;;;;;;5107171;28;20592;-72
2021/03/23 12:54:50;;;;;;;24.00;12.60;;;11.00;99.90;;;;;;5106064;28;20246;-72
2021/03/23 12:57:21;;;;;;;22.77;13.40;;;10.90;99.90;;;;;;5102452;28;20544;-72
2021/03/23 12:59:49;;;;;;;24.07;12.60;;;11.00;99.90;;;;;;5097902;28;20201;-72
2021/03/23 13:02:19;;;;;;;23.33;12.57;;;11.00;99.90;;;;;;5096205;28;20455;-72
2021/03/23 13:04:46;;;;;;;21.27;12.60;;;11.00;99.90;;;;;;5105247;28;20228;-72
2021/03/23 13:07:17;;;;;;;23.83;13.43;;;11.00;99.90;;;;;;5102348;28;20262;-72
2021/03/23 13:09:44;;;;;;;23.53;12.77;;;11.00;99.90;;;;;;5105206;28;20360;-72
2021/03/23 13:12:11;;;;;;;21.70;12.30;;;11.00;99.90;;;;;;5105388;28;20549;-72
2021/03/23 13:14:40;;;;;;;26.33;13.63;;;10.90;99.90;;;;;;5106052;28;20963;-72